Time;durP1;ratioP1;P1;durP2;ratioP2;P2;SDS_P1;SDS_P2;PMS_P1;PMS_P2;Temp;Humidity;BMP_temperature;BMP_pressure;BME280_temperature;BME280_humidity;BME280_pressure;Samples;Min_cycle;Max_cycle;Signal;HPM_P1;HPM_P2
2022/10/10 00:03:59;;;;;;;;;;;;;;;9.27;100.00;95848.34;10563433;28;2847;-75
2022/10/10 00:09:02;;;;;;;;;;;;;;;9.46;100.00;95844.13;10558711;28;1995;-76
2022/10/10 00:14:06;;;;;;;;;;;;;;;9.57;100.00;95839.59;10558493;28;2848;-73
2022/10/10 00:19:09;;;;;;;;;;;;;;;9.64;100.00;95830.19;10563204;28;3014;-74
2022/10/10 00:24:12;;;;;;;;;;;;;;;9.68;100.00;95833.19;10565775;28;2880;-74
2022/10/10 00:29:15;;;;;;;;;;;;;;;9.67;100.00;95828.84;10558765;28;2879;-74
2022/10/10 00:34:18;;;;;;;;;;;;;;;9.80;100.00;95831.03;10541875;28;2903;-74
2022/10/10 00:39:22;;;;;;;;;;;;;;;9.89;100.00;95834.00;10558906;28;2984;-74
2022/10/10 00:44:25;;;;;;;;;;;;;;;9.90;100.00;95830.25;10569875;28;2917;-74
2022/10/10 00:49:28;;;;;;;;;;;;;;;10.01;100.00;95831.84;10562677;28;2938;-74
2022/10/10 00:54:31;;;;;;;;;;;;;;;10.00;100.00;95827.56;10549066;28;2899;-74
2022/10/10 00:59:35;;;;;;;;;;;;;;;10.02;100.00;95822.72;10569581;28;2046;-75
2022/10/10 01:04:38;;;;;;;;;;;;;;;10.06;100.00;95814.94;10561437;28;3029;-74
2022/10/10 01:09:47;;;;;;;;;;;;;;;10.04;100.00;95820.56;10557117;28;2960;-74
2022/10/10 01:14:50;;;;;;;;;;;;;;;10.10;100.00;95813.31;10555586;28;2345;-74
2022/10/10 01:19:54;;;;;;;;;;;;;;;10.16;100.00;95823.78;10563542;28;2004;-74
2022/10/10 01:24:57;;;;;;;;;;;;;;;10.17;100.00;95811.97;10552658;28;2899;-77
2022/10/10 01:30:00;;;;;;;;;;;;;;;10.09;100.00;95807.16;10552329;28;2889;-76
2022/10/10 01:35:03;;;;;;;;;;;;;;;10.15;100.00;95814.13;10544949;28;2883;-74
2022/10/10 01:40:06;;;;;;;;;;;;;;;10.06;100.00;95806.91;10566083;28;2872;-74
2022/10/10 01:45:10;;;;;;;;;;;;;;;10.20;100.00;95813.31;10554283;28;2093;-73
2022/10/10 01:50:13;;;;;;;;;;;;;;;10.09;100.00;95817.88;10557684;28;2852;-74
2022/10/10 01:55:16;;;;;;;;;;;;;;;10.19;100.00;95811.72;10556801;28;2914;-73
2022/10/10 02:00:19;;;;;;;;;;;;;;;10.27;100.00;95817.38;10562170;28;2839;-75
2022/10/10 02:05:23;;;;;;;;;;;;;;;10.22;100.00;95811.97;10555425;28;2075;-76
2022/10/10 02:10:26;;;;;;;;;;;;;;;10.12;100.00;95817.38;10557865;28;3184;-73
2022/10/10 02:15:29;;;;;;;;;;;;;;;10.16;100.00;95809.56;10555069;28;3029;-74
2022/10/10 02:20:33;;;;;;;;;;;;;;;10.09;100.00;95806.34;10555834;28;2891;-73
2022/10/10 02:25:36;;;;;;;;;;;;;;;9.96;100.00;95805.81;10554348;28;2873;-72
2022/10/10 02:30:39;;;;;;;;;;;;;;;9.89;100.00;95812.50;10553758;28;2963;-75
2022/10/10 02:35:42;;;;;;;;;;;;;;;9.90;100.00;95814.13;10546886;28;3092;-74
2022/10/10 02:40:45;;;;;;;;;;;;;;;9.90;100.00;95814.13;10548200;28;2068;-74
2022/10/10 02:45:49;;;;;;;;;;;;;;;9.90;100.00;95814.13;10547696;28;2024;-76
2022/10/10 02:50:52;;;;;;;;;;;;;;;9.99;100.00;95815.22;10560126;28;2077;-77
2022/10/10 02:55:55;;;;;;;;;;;;;;;9.97;100.00;95820.03;10528867;28;1996;-76
2022/10/10 03:00:59;;;;;;;;;;;;;;;9.99;100.00;95813.34;10557070;28;1984;-73
2022/10/10 03:06:02;;;;;;;;;;;;;;;10.11;100.00;95814.94;10552051;28;2927;-73
2022/10/10 03:11:05;;;;;;;;;;;;;;;10.13;100.00;95818.97;10555013;28;2958;-72
2022/10/10 03:16:08;;;;;;;;;;;;;;;10.18;100.00;95810.91;10557581;28;2935;-73
2022/10/10 03:21:11;;;;;;;;;;;;;;;10.10;100.00;95824.88;10562408;28;2902;-74
2022/10/10 03:26:15;;;;;;;;;;;;;;;10.10;100.00;95824.88;10556305;28;2939;-73
2022/10/10 03:31:18;;;;;;;;;;;;;;;10.22;100.00;95819.22;10568300;28;2108;-73
2022/10/10 03:36:21;;;;;;;;;;;;;;;10.21;100.00;95815.72;10551019;28;2045;-75
2022/10/10 03:41:25;;;;;;;;;;;;;;;10.08;100.00;95810.91;10567074;28;2893;-76
2022/10/10 03:46:28;;;;;;;;;;;;;;;10.02;100.00;95812.78;10561706;28;2933;-77
2022/10/10 03:51:31;;;;;;;;;;;;;;;9.95;100.00;95811.44;10564023;28;2072;-75
2022/10/10 03:56:35;;;;;;;;;;;;;;;9.92;100.00;95818.13;10557281;28;2012;-74
2022/10/10 04:01:38;;;;;;;;;;;;;;;9.92;100.00;95815.47;10564787;28;2035;-75
2022/10/10 04:06:41;;;;;;;;;;;;;;;9.99;100.00;95815.22;10558925;28;1958;-74
2022/10/10 04:11:46;;;;;;;;;;;;;;;10.09;100.00;95815.19;10569430;28;2911;-78
2022/10/10 04:16:49;;;;;;;;;;;;;;;10.16;100.00;95812.25;10554019;28;2962;-74
2022/10/10 04:21:54;;;;;;;;;;;;;;;10.15;100.00;95816.81;10563278;28;2950;-73
2022/10/10 04:26:57;;;;;;;;;;;;;;;10.21;100.00;95814.94;10559603;28;2896;-73
2022/10/10 04:32:00;;;;;;;;;;;;;;;10.36;100.00;95814.13;10572337;28;3061;-76
2022/10/10 04:37:04;;;;;;;;;;;;;;;10.26;100.00;95810.38;10559406;28;2995;-74
2022/10/10 04:42:08;;;;;;;;;;;;;;;10.25;100.00;95811.47;10552515;28;3015;-75
2022/10/10 04:47:11;;;;;;;;;;;;;;;10.31;100.00;95804.22;10557115;28;2178;-75
2022/10/10 04:52:15;;;;;;;;;;;;;;;10.25;100.00;95803.41;10561176;28;2829;-75
2022/10/10 04:57:18;;;;;;;;;;;;;;;10.19;100.00;95795.59;10556150;28;2155;-75
2022/10/10 05:02:21;;;;;;;;;;;;;;;10.07;100.00;95803.94;10549514;28;3202;-75
2022/10/10 05:07:25;;;;;;;;;;;;;;;10.03;100.00;95810.91;10553343;28;2931;-76
2022/10/10 05:12:28;;;;;;;;;;;;;;;10.00;100.00;95814.94;10554166;28;2827;-76
2022/10/10 05:17:32;;;;;;;;;;;;;;;10.14;100.00;95817.09;10559324;28;2835;-73
2022/10/10 05:22:35;;;;;;;;;;;;;;;10.16;100.00;95817.63;10552226;28;2910;-75
2022/10/10 05:27:38;;;;;;;;;;;;;;;10.25;100.00;95821.41;10552855;28;2132;-74
2022/10/10 05:32:42;;;;;;;;;;;;;;;10.19;100.00;95817.09;10552605;28;2830;-76
2022/10/10 05:37:45;;;;;;;;;;;;;;;10.11;100.00;95823.78;10550956;28;2859;-74
2022/10/10 05:42:48;;;;;;;;;;;;;;;10.02;100.00;95820.84;10550064;28;2937;-74
2022/10/10 05:48:02;;;;;;;;;;;;;;;9.96;100.00;95829.16;10560574;28;2812;-75
2022/10/10 05:53:05;;;;;;;;;;;;;;;9.93;100.00;95825.16;10560532;28;2887;-74
2022/10/10 05:58:08;;;;;;;;;;;;;;;10.04;100.00;95831.31;10559653;28;2993;-75
2022/10/10 06:03:13;;;;;;;;;;;;;;;10.14;100.00;95831.31;10552527;28;2886;-75
2022/10/10 06:08:17;;;;;;;;;;;;;;;10.22;100.00;95824.59;10555429;28;3003;-74
2022/10/10 06:13:20;;;;;;;;;;;;;;;10.32;100.00;95839.94;10546589;28;3165;-74
2022/10/10 06:18:26;;;;;;;;;;;;;;;10.42;100.00;95842.59;10559168;28;3477;-74
2022/10/10 06:23:29;;;;;;;;;;;;;;;10.68;100.00;95846.88;10556726;28;2749;-74
2022/10/10 06:28:33;;;;;;;;;;;;;;;10.90;100.00;95848.44;10556433;28;2836;-74
2022/10/10 06:33:38;;;;;;;;;;;;;;;11.01;100.00;95844.66;10552516;28;2088;-73
2022/10/10 06:38:41;;;;;;;;;;;;;;;11.37;100.00;95847.97;10539222;28;2750;-74
2022/10/10 06:43:45;;;;;;;;;;;;;;;11.69;100.00;95852.94;10542485;28;3274;-75
2022/10/10 06:48:48;;;;;;;;;;;;;;;11.85;100.00;95851.78;10557317;28;3192;-78
2022/10/10 06:53:52;;;;;;;;;;;;;;;12.25;100.00;95846.38;10548007;28;2703;-76
2022/10/10 06:58:55;;;;;;;;;;;;;;;12.38;100.00;95849.22;10550059;28;3283;-75
2022/10/10 07:03:58;;;;;;;;;;;;;;;12.62;100.00;95851.19;10540709;28;3179;-75
2022/10/10 07:09:02;;;;;;;;;;;;;;;12.54;100.00;95851.81;10550815;28;2052;-75
2022/10/10 07:14:05;;;;;;;;;;;;;;;12.89;100.00;95850.63;10545359;28;3156;-75
2022/10/10 07:19:08;;;;;;;;;;;;;;;13.07;100.00;95846.41;10551640;28;3131;-74
2022/10/10 07:24:12;;;;;;;;;;;;;;;13.33;100.00;95855.03;10553815;28;2843;-75
2022/10/10 07:29:15;;;;;;;;;;;;;;;13.56;100.00;95853.41;10568297;28;3275;-74
2022/10/10 07:34:18;;;;;;;;;;;;;;;13.81;100.00;95858.47;10565159;28;2055;-76
2022/10/10 07:39:21;;;;;;;;;;;;;;;13.82;100.00;95865.47;10549507;28;2031;-75
2022/10/10 07:44:24;;;;;;;;;;;;;;;14.06;100.00;95868.91;10542797;28;3178;-76
2022/10/10 07:49:28;;;;;;;;;;;;;;;14.35;100.00;95859.78;10536610;28;2742;-75
2022/10/10 07:54:31;;;;;;;;;;;;;;;14.54;100.00;95863.28;10559822;28;3180;-75
2022/10/10 07:59:34;;;;;;;;;;;;;;;14.70;100.00;95863.06;10560050;28;3149;-73
2022/10/10 08:04:39;;;;;;;;;;;;;;;15.00;100.00;95859.78;10557007;28;3234;-74
2022/10/10 08:09:43;;;;;;;;;;;;;;;15.22;100.00;95861.00;10552789;28;3110;-73
2022/10/10 08:14:46;;;;;;;;;;;;;;;15.64;100.00;95862.59;10552062;28;2153;-73
2022/10/10 08:19:50;;;;;;;;;;;;;;;15.73;100.00;95874.34;10562209;28;2047;-77
2022/10/10 08:24:53;;;;;;;;;;;;;;;15.94;100.00;95869.28;10563684;28;2868;-76
2022/10/10 08:29:57;;;;;;;;;;;;;;;16.01;100.00;95872.38;10577176;28;2652;-75
2022/10/10 08:35:00;;;;;;;;;;;;;;;16.33;100.00;95878.69;10542780;28;2047;-74
2022/10/10 08:40:03;;;;;;;;;;;;;;;16.39;100.00;95867.41;10555694;28;3088;-74
2022/10/10 08:45:07;;;;;;;;;;;;;;;16.37;100.00;95866.13;10565400;28;3152;-74
2022/10/10 08:50:10;;;;;;;;;;;;;;;16.33;100.00;95867.84;10554819;28;3152;-75
2022/10/10 08:55:13;;;;;;;;;;;17.00;99.90;;;16.30;100.00;95868.47;10553021;28;3199;-77
2022/10/10 09:00:17;;;;;;;;;;;16.90;99.90;;;16.46;100.00;95872.41;10553370;28;2108;-76
2022/10/10 09:05:20;;;;;;;;;;;17.00;99.90;;;16.89;100.00;95864.56;10549563;28;3187;-75
2022/10/10 09:10:23;;;;;;;;;;;;;;;17.07;100.00;95865.47;10563752;28;2809;-75
2022/10/10 09:15:26;;;;;;;;;;;;;;;17.19;100.00;95873.03;10560821;28;3175;-73
2022/10/10 09:20:29;;;;;;;;;;;;;;;17.53;100.00;95873.16;10537301;28;2099;-74
2022/10/10 09:25:33;;;;;;;;;;;;;;;17.88;98.25;95867.84;10554095;28;2720;-74
2022/10/10 09:30:36;;;;;;;;;;;;;;;17.80;100.00;95863.97;10554569;28;3223;-76
2022/10/10 09:35:39;;;;;;;;;;;;;;;17.75;100.00;95864.13;10538106;28;3120;-74
2022/10/10 09:40:43;;;;;;;;;;;;;;;17.98;100.00;95864.00;10548937;28;2152;-76
2022/10/10 09:45:46;;;;;;;;;;;;;;;18.24;96.23;95870.25;10558042;28;2717;-75
2022/10/10 09:50:49;;;;;;;;;;;;;;;18.67;94.81;95877.63;10562500;28;2713;-73
2022/10/10 09:55:53;;;;;;;;;;;;;;;18.96;93.38;95868.78;10556925;28;2686;-76
2022/10/10 10:00:56;;;;;;;;;;;;;;;19.05;89.76;95882.34;10553914;28;3178;-75
2022/10/10 10:06:00;;;;;;;;;;;;;;;19.21;91.82;95879.88;10549706;28;3155;-74
2022/10/10 10:11:03;;;;;;;;;;;;;;;19.42;87.09;95875.34;10549506;28;2738;-74
2022/10/10 10:16:06;;;;;;;;;;;;;;;19.74;86.67;95876.66;10532048;28;3138;-74
2022/10/10 10:21:10;;;;;;;;;;;;;;;19.69;87.75;95874.09;10553460;28;2059;-75
2022/10/10 10:26:13;;;;;;;;;;;;;;;19.63;88.29;95875.41;10558128;28;3207;-75
2022/10/10 10:31:16;;;;;;;;;;;;;;;19.41;91.73;95874.53;10542533;28;2089;-75
2022/10/10 10:36:19;;;;;;;;;;;;;;;19.10;95.10;95871.28;10539150;28;3136;-75
2022/10/10 10:41:22;;;;;;;;;;;;;;;19.14;92.68;95870.28;10541116;28;2739;-75
2022/10/10 10:46:26;;;;;;;;;;;;;;;19.38;93.44;95869.72;10551247;28;2734;-77
2022/10/10 10:51:30;;;;;;;;;;;;;;;19.63;90.01;95864.50;10547509;28;2784;-76
2022/10/10 10:56:33;;;;;;;;;;;;;;;19.52;92.08;95865.97;10546504;28;2026;-74
2022/10/10 11:01:36;;;;;;;;;;;;;;;19.41;91.10;95860.91;10540344;28;2711;-73
2022/10/10 11:06:59;;;;;;;;;;;;;;;19.48;92.33;95868.56;10557092;28;3191;-75
2022/10/10 11:12:20;;;;;;;;;;;;;;;19.59;91.68;95858.13;10549072;28;2729;-75
2022/10/10 11:17:24;;;;;;;;;;;;;;;19.61;90.48;95853.94;10545711;28;2726;-75
2022/10/10 11:22:29;;;;;;;;;;;;;;;19.69;91.44;95853.09;10551414;28;3121;-73
2022/10/10 11:27:32;;;;;;;;;;;;;;;19.93;88.06;95841.56;10554830;28;2730;-75
2022/10/10 11:32:35;;;;;;;;;;;;;;;19.95;88.42;95849.41;10567809;27;3276;-76
2022/10/10 11:37:38;;;;;;;;;;;;;;;20.12;88.72;95848.50;10559096;28;2051;-77
2022/10/10 11:42:41;;;;;;;;;;;;;;;20.62;86.48;95847.63;10546046;28;3123;-76
2022/10/10 11:47:45;;;;;;;;;;;;;;;20.59;84.99;95851.78;10532410;28;2706;-77
2022/10/10 11:52:48;;;;;;;;;;;;;;;20.92;79.92;95848.25;10550283;28;2052;-75
2022/10/10 11:57:51;;;;;;;;;;;;;;;20.77;79.22;95850.50;10541046;28;2096;-75
2022/10/10 12:02:55;;;;;;;;;;;;;;;20.63;81.00;95838.28;10556994;28;3176;-75
2022/10/10 12:07:58;;;;;;;;;;;;;;;20.55;81.82;95839.97;10554338;28;2857;-75
2022/10/10 12:13:01;;;;;;;;;;;;;;;20.84;81.99;95847.22;10561840;28;3261;-77
2022/10/10 12:18:05;;;;;;;;;;;;;;;20.86;81.38;95839.47;10559569;28;2726;-76
2022/10/10 12:23:08;;;;;;;;;;;;;;;20.71;82.04;95838.19;10554583;28;3261;-75
2022/10/10 12:28:11;;;;;;;;;;;;;;;21.18;79.57;95842.50;10549000;28;2744;-75
2022/10/10 12:33:15;;;;;;;;;;;;;;;20.99;80.35;95838.41;10562835;28;3123;-75
2022/10/10 12:38:18;;;;;;;;;;;;;;;20.97;80.46;95832.44;10560997;28;1995;-74
2022/10/10 12:43:22;;;;;;;;;;;;;;;20.71;84.80;95826.47;10546623;28;2711;-75
2022/10/10 12:48:25;;;;;;;;;;;;;;;20.61;83.32;95826.88;10559998;28;3252;-75
2022/10/10 12:53:28;;;;;;;;;;;;;;;20.60;83.73;95825.28;10553569;28;3215;-75
2022/10/10 12:58:31;;;;;;;;;;;;;;;20.54;83.57;95816.50;10554792;28;3179;-74
2022/10/10 13:03:35;;;;;;;;;;;;;;;20.78;85.30;95823.97;10557712;28;3206;-75
2022/10/10 13:08:38;;;;;;;;;;;;;;;20.70;84.55;95825.66;10548942;28;3104;-76
2022/10/10 13:13:44;;;;;;;;;;;;;;;20.73;84.25;95824.19;10546128;28;2280;-75
2022/10/10 13:18:47;;;;;;;;;;;;;;;20.90;82.06;95825.94;10553613;28;2135;-74
2022/10/10 13:23:51;;;;;;;;;;;;;;;20.73;85.70;95824.19;10541509;28;2683;-74
2022/10/10 13:29:14;;;;;;;;;;;;;;;20.35;86.04;95819.69;10549989;28;3305;-75
2022/10/10 13:34:17;;;;;;;;;;;;;;;20.11;88.22;95825.06;10562045;28;2263;-76
2022/10/10 13:39:25;;;;;;;;;;;;;;;20.16;88.33;95833.03;10555203;28;2768;-74
2022/10/10 13:44:28;;;;;;;;;;;;;;;20.27;88.97;95825.25;10551229;28;3580;-75
2022/10/10 13:49:31;;;;;;;;;;;;;;;20.14;89.88;95827.13;10550955;28;3112;-75
2022/10/10 13:54:35;;;;;;;;;;;;;;;20.26;91.03;95832.63;10532855;28;2695;-76
2022/10/10 13:59:38;;;;;;;;;;;;;;;19.86;94.24;95833.09;10548477;28;3140;-76
2022/10/10 14:04:41;;;;;;;;;;;;;;;20.20;92.06;95828.50;10550697;28;2694;-75
2022/10/10 14:09:45;;;;;;;;;;;;;;;20.09;91.26;95839.00;10557706;28;2041;-76
2022/10/10 14:14:54;;;;;;;;;;;;;;;20.12;93.95;95832.13;10552572;28;2721;-76
2022/10/10 14:19:58;;;;;;;;;;;;;;;20.06;93.38;95820.59;10553410;28;2746;-76
2022/10/10 14:25:02;;;;;;;;;;;;;;;19.78;94.31;95830.41;10556221;28;3204;-76
2022/10/10 14:30:05;;;;;;;;;;;;;;;19.93;93.58;95836.09;10541221;28;3095;-78
2022/10/10 14:35:08;;;;;;;;;;;;;;;19.79;93.92;95830.09;10547373;28;3116;-76
2022/10/10 14:40:11;;;;;;;;;;;;;;;19.87;93.34;95831.97;10549352;28;3148;-76
2022/10/10 14:45:15;;;;;;;;;;;;;;;19.64;94.64;95827.94;10554241;28;2043;-75
2022/10/10 14:50:18;;;;;;;;;;;;;;;19.52;96.37;95831.34;10549775;28;3123;-75
2022/10/10 14:55:21;;;;;;;;;;;;;;;19.30;99.45;95839.78;10548065;28;2717;-76
2022/10/10 15:00:24;;;;;;;;;;;;;;;19.14;100.00;95832.16;10547238;28;3207;-75
2022/10/10 15:05:34;;;;;;;;;;;;;;;19.05;100.00;95836.03;10547862;28;3290;-74
2022/10/10 15:10:37;;;;;;;;;;;;;;;19.02;100.00;95839.41;10543980;28;2855;-75
2022/10/10 15:15:40;;;;;;;;;;;;;;;18.81;100.00;95844.75;10554278;28;2780;-74
2022/10/10 15:20:43;;;;;;;;;;;;;;;18.56;100.00;95854.53;10542305;28;2080;-74
2022/10/10 15:25:46;;;;;;;;;;;;;;;18.53;100.00;95852.47;10561410;28;2733;-75
2022/10/10 15:30:51;;;;;;;;;;;;;;;18.28;100.00;95849.44;10561637;28;3179;-74
2022/10/10 15:35:55;;;;;;;;;;;;;;;18.09;100.00;95860.66;10557434;28;3167;-76
2022/10/10 15:41:12;;;;;;;;;;;;;;;18.18;100.00;95860.66;10564431;28;3135;-74
2022/10/10 15:46:15;;;;;;;;;;;;;;;18.07;100.00;95859.38;10559402;28;2012;-73
2022/10/10 15:51:18;;;;;;;;;;;;;;;17.87;100.00;95859.97;10561484;28;2012;-76
2022/10/10 15:56:21;;;;;;;;;;;;;;;17.74;100.00;95859.78;10564854;28;3232;-75
2022/10/10 16:01:25;;;;;;;;;;;;;;;17.66;100.00;95870.63;10562576;28;3120;-76
2022/10/10 16:06:28;;;;;;;;;;;;;;;17.56;100.00;95877.16;10558078;28;3265;-76
2022/10/10 16:11:31;;;;;;;;;;;;;;;17.39;100.00;95866.22;10553194;28;3186;-75
2022/10/10 16:16:36;;;;;;;;;;;;;;;17.31;100.00;95867.00;10548514;28;2112;-74
2022/10/10 16:21:40;;;;;;;;;;;;;;;17.17;100.00;95869.81;10547813;28;2714;-74
2022/10/10 16:26:43;;;;;;;;;;;;;;;17.08;100.00;95875.22;10554291;28;2024;-75
2022/10/10 16:31:46;;;;;;;;;;;;;;;16.96;100.00;95885.84;10547373;28;3065;-75
2022/10/10 16:36:50;;;;;;;;;;;;;;;16.90;100.00;95881.66;10550008;28;3109;-74
2022/10/10 16:41:53;;;;;;;;;;;;;;;16.82;100.00;95885.13;10559937;28;2192;-75
2022/10/10 16:46:57;;;;;;;;;;;;;;;16.67;100.00;95891.72;10562964;28;2730;-75
2022/10/10 16:52:00;;;;;;;;;;;;;;;16.65;100.00;95902.06;10561027;28;3158;-76
2022/10/10 16:57:03;;;;;;;;;;;;;;;16.54;100.00;95901.53;10561718;28;3193;-75
2022/10/10 17:02:06;;;;;;;;;;;;;;;16.61;100.00;95907.34;10567859;28;2010;-75
2022/10/10 17:07:10;;;;;;;;;;;;;;;16.52;100.00;95914.59;10568223;28;3164;-75
2022/10/10 17:12:14;;;;;;;;;;;;;;;16.40;100.00;95919.75;10551287;28;3251;-75
2022/10/10 17:17:18;;;;;;;;;;;;;;;16.31;100.00;95918.91;10563492;28;2693;-76
2022/10/10 17:22:21;;;;;;;;;;;;;;;16.20;100.00;95932.69;10551560;28;2723;-75
2022/10/10 17:27:24;;;;;;;;;;;17.10;99.90;;;16.17;100.00;95941.44;10559601;28;2839;-78
2022/10/10 17:37:34;;;;;;;;;;;17.10;99.90;;;16.06;100.00;95950.91;10563275;28;2019;-82
2022/10/10 17:42:37;;;;;;;;;;;17.00;99.90;;;16.01;100.00;95951.00;10559273;28;3134;-82
2022/10/10 17:47:40;;;;;;;;;;;;;;;16.01;100.00;95953.72;10556402;28;3219;-70
2022/10/10 17:52:43;;;;;;;;;;;;;;;15.86;100.00;95957.53;10560980;27;2815;-68
2022/10/10 17:57:47;;;;;;;;;;;;;;;15.65;100.00;95972.63;10559233;28;3207;-68
2022/10/10 18:02:52;;;;;;;;;;;;;;;15.41;100.00;95978.19;10566499;28;2057;-67
2022/10/10 18:07:56;;;;;;;;;;;;;;;15.09;100.00;95979.81;10558181;28;3264;-69
2022/10/10 18:13:00;;;;;;;;;;;;;;;14.85;100.00;95982.66;10559860;28;2746;-74
2022/10/10 18:18:03;;;;;;;;;;;;;;;14.68;100.00;95986.97;10558235;28;2100;-75
2022/10/10 18:23:06;;;;;;;;;;;;;;;14.46;100.00;95988.41;10554766;28;3199;-71
2022/10/10 18:28:10;;;;;;;;;;;;;;;14.40;100.00;96003.06;10545006;28;2697;-72
2022/10/10 18:33:13;;;;;;;;;;;;;;;14.22;100.00;96001.13;10550256;28;3119;-71
2022/10/10 18:38:16;;;;;;;;;;;;;;;14.39;100.00;96006.06;10544879;28;2875;-75
2022/10/10 18:43:21;;;;;;;;;;;;;;;14.13;100.00;96011.81;10565131;28;2058;-69
2022/10/10 18:48:24;;;;;;;;;;;;;;;14.06;100.00;96014.88;10562233;28;2059;-71
2022/10/10 18:53:28;;;;;;;;;;;;;;;14.00;100.00;96010.63;10569420;28;2742;-71
2022/10/10 18:58:31;;;;;;;;;;;;;;;13.90;100.00;96013.44;10564895;28;3199;-70
2022/10/10 19:03:34;;;;;;;;;;;;;;;13.81;100.00;96020.56;10558113;28;3147;-70
2022/10/10 19:08:37;;;;;;;;;;;;;;;13.68;100.00;96018.56;10556406;28;2772;-74
2022/10/10 19:13:41;;;;;;;;;;;;;;;13.53;100.00;96023.00;10553178;28;3175;-73
2022/10/10 19:18:44;;;;;;;;;;;;;;;13.35;100.00;96025.63;10551287;28;3159;-74
2022/10/10 19:23:47;;;;;;;;;;;;;;;13.19;100.00;96024.94;10552189;28;2723;-74
2022/10/10 19:28:50;;;;;;;;;;;;;;;13.11;100.00;96023.66;10559643;28;2042;-73
2022/10/10 19:33:56;;;;;;;;;;;;;;;13.03;100.00;96031.56;10557438;28;3044;-76
2022/10/10 19:39:00;;;;;;;;;;;;;;;12.93;100.00;96029.75;10551108;28;3133;-75
2022/10/10 19:44:04;;;;;;;;;;;;;;;12.83;100.00;96029.81;10552961;28;3104;-75
2022/10/10 19:49:08;;;;;;;;;;;;;;;12.67;100.00;96032.66;10564477;28;2754;-73
2022/10/10 19:54:11;;;;;;;;;;;;;;;12.59;100.00;96029.72;10560571;28;3259;-73
2022/10/10 19:59:14;;;;;;;;;;;;;;;12.52;100.00;96043.50;10567116;28;2818;-74
2022/10/10 20:04:18;;;;;;;;;;;;;;;12.43;100.00;96037.91;10557998;28;2699;-75
2022/10/10 20:09:23;;;;;;;;;;;;;;;12.44;100.00;96042.22;10561391;28;2755;-74
2022/10/10 20:14:26;;;;;;;;;;;;;;;12.34;100.00;96050.38;10563876;28;2749;-73
2022/10/10 20:19:29;;;;;;;;;;;;;;;12.23;100.00;96059.59;10558861;28;3269;-74
2022/10/10 20:24:32;;;;;;;;;;;;;;;12.15;100.00;96062.84;10538653;28;3131;-76
2022/10/10 20:29:36;;;;;;;;;;;;;;;12.09;100.00;96056.69;10552553;28;3123;-73
2022/10/10 20:34:39;;;;;;;;;;;;;;;12.04;100.00;96063.97;10548126;28;2705;-74
2022/10/10 20:39:42;;;;;;;;;;;;;;;12.01;100.00;96068.00;10557814;28;2102;-73
2022/10/10 20:44:45;;;;;;;;;;;;;;;11.89;100.00;96065.63;10562131;28;2774;-74
2022/10/10 20:49:50;;;;;;;;;;;;;;;11.90;100.00;96078.03;10559685;28;3204;-73
2022/10/10 20:54:53;;;;;;;;;;;;;;;11.80;100.00;96080.72;10563236;28;2721;-74
2022/10/10 20:59:56;;;;;;;;;;;;;;;11.68;100.00;96085.59;10558671;28;3112;-75
2022/10/10 21:05:00;;;;;;;;;;;;;;;11.61;100.00;96085.88;10556724;28;3116;-74
2022/10/10 21:10:03;;;;;;;;;;;;;;;11.52;100.00;96075.94;10565959;28;3107;-74
2022/10/10 21:15:07;;;;;;;;;;;;;;;11.50;100.00;96081.56;10543487;28;3183;-74
2022/10/10 21:20:12;;;;;;;;;;;;;;;11.48;100.00;96074.88;10541884;28;2726;-75
2022/10/10 21:25:16;;;;;;;;;;;;;;;11.46;100.00;96077.03;10552837;28;2897;-73
2022/10/10 21:30:20;;;;;;;;;;;;;;;11.37;100.00;96090.22;10551018;28;2773;-72
2022/10/10 21:35:23;;;;;;;;;;;;;;;11.34;100.00;96085.38;10550160;28;3168;-73
2022/10/10 21:40:27;;;;;;;;;;;;;;;11.25;100.00;96086.97;10548329;28;2815;-73
2022/10/10 21:45:30;;;;;;;;;;;;;;;11.25;100.00;96092.38;10558682;28;3148;-72
2022/10/10 21:50:33;;;;;;;;;;;;;;;11.15;100.00;96097.78;10559333;28;2742;-73
2022/10/10 21:55:36;;;;;;;;;;;;;;;11.13;100.00;96106.09;10558044;28;2788;-73
2022/10/10 22:00:40;;;;;;;;;;;;;;;11.17;100.00;96107.19;10563190;28;2721;-74
2022/10/10 22:05:44;;;;;;;;;;;;;;;11.24;100.00;96102.31;10557134;28;3233;-74
2022/10/10 22:10:47;;;;;;;;;;;;;;;11.09;100.00;96113.09;10571284;28;3214;-74
2022/10/10 22:15:50;;;;;;;;;;;;;;;11.07;100.00;96107.19;10560357;28;2036;-74
2022/10/10 22:20:53;;;;;;;;;;;;;;;11.00;100.00;96107.41;10564252;28;2764;-73
2022/10/10 22:25:57;;;;;;;;;;;;;;;10.99;100.00;96107.69;10559504;28;2710;-74
2022/10/10 22:31:00;;;;;;;;;;;;;;;11.01;100.00;96108.25;10554523;28;2743;-73
2022/10/10 22:36:03;;;;;;;;;;;;;;;11.00;100.00;96109.31;10556211;28;2765;-73
2022/10/10 22:41:07;;;;;;;;;;;;;;;10.96;100.00;96100.19;10552586;28;2042;-73
2022/10/10 22:46:10;;;;;;;;;;;;;;;11.12;100.00;96115.25;10559060;28;2738;-72
2022/10/10 22:51:13;;;;;;;;;;;;;;;11.33;100.00;96116.06;10562903;28;3191;-77
2022/10/10 22:56:18;;;;;;;;;;;;;;;11.51;100.00;96125.47;10560188;28;3183;-74
2022/10/10 23:01:21;;;;;;;;;;;;;;;11.61;100.00;96115.50;10555401;28;3174;-75
2022/10/10 23:06:34;;;;;;;;;;;;;;;11.66;100.00;96121.97;10556294;28;3183;-73
2022/10/10 23:11:37;;;;;;;;;;;;;;;11.60;100.00;96123.84;10555690;28;2750;-73
2022/10/10 23:16:40;;;;;;;;;;;;;;;11.52;100.00;96132.47;10555078;28;2727;-72
2022/10/10 23:21:44;;;;;;;;;;;;;;;11.41;100.00;96128.16;10559631;28;3171;-73
2022/10/10 23:26:49;;;;;;;;;;;;;;;11.28;100.00;96130.31;10534756;28;3559;-73
2022/10/10 23:31:53;;;;;;;;;;;;;;;11.20;100.00;96122.81;10559318;28;2829;-73
2022/10/10 23:37:00;;;;;;;;;;;;;;;11.25;100.00;96130.03;10555514;28;2062;-73
2022/10/10 23:42:03;;;;;;;;;;;;;;;11.24;100.00;96133.81;10556304;28;2792;-75
2022/10/10 23:47:06;;;;;;;;;;;;;;;11.32;100.00;96136.78;10560356;28;3191;-74
2022/10/10 23:52:09;;;;;;;;;;;;;;;11.44;100.00;96149.16;10559168;28;3166;-74
2022/10/10 23:57:12;;;;;;;;;;;;;;;11.48;100.00;96156.44;10555596;28;3199;-73
